sensor_id;sensor_type;location;lat;lon;timestamp;temperature;humidity
21312;DHT22;18076;52.154;10.570;2023-04-12T00:01:38;3.30;99.90
21312;DHT22;18076;52.154;10.570;2023-04-12T00:04:04;3.30;99.90
21312;DHT22;18076;52.154;10.570;2023-04-12T00:06:30;3.30;99.90
21312;DHT22;18076;52.154;10.570;2023-04-12T00:08:59;3.30;99.90
21312;DHT22;18076;52.154;10.570;2023-04-12T00:11:25;3.40;99.90
21312;DHT22;18076;52.154;10.570;2023-04-12T00:13:52;3.40;99.90
21312;DHT22;18076;52.154;10.570;2023-04-12T00:16:18;3.40;99.90
21312;DHT22;18076;52.154;10.570;2023-04-12T00:18:43;3.40;99.90
21312;DHT22;18076;52.154;10.570;2023-04-12T00:21:10;3.40;99.90
21312;DHT22;18076;52.154;10.570;2023-04-12T00:23:35;3.50;99.90
21312;DHT22;18076;52.154;10.570;2023-04-12T00:26:02;3.40;99.90
21312;DHT22;18076;52.154;10.570;2023-04-12T00:28:28;3.30;99.90
21312;DHT22;18076;52.154;10.570;2023-04-12T00:30:53;3.30;99.90
21312;DHT22;18076;52.154;10.570;2023-04-12T00:33:19;3.30;99.90
21312;DHT22;18076;52.154;10.570;2023-04-12T00:35:45;3.30;99.90
21312;DHT22;18076;52.154;10.570;2023-04-12T00:38:10;3.20;99.90
21312;DHT22;18076;52.154;10.570;2023-04-12T00:40:45;3.20;99.90
21312;DHT22;18076;52.154;10.570;2023-04-12T00:43:10;3.20;99.90
21312;DHT22;18076;52.154;10.570;2023-04-12T00:45:40;3.20;99.90
21312;DHT22;18076;52.154;10.570;2023-04-12T00:48:05;3.20;99.90
21312;DHT22;18076;52.154;10.570;2023-04-12T00:50:33;3.20;99.90
21312;DHT22;18076;52.154;10.570;2023-04-12T00:52:59;3.20;99.90
21312;DHT22;18076;52.154;10.570;2023-04-12T00:55:26;3.20;99.90
21312;DHT22;18076;52.154;10.570;2023-04-12T00:57:52;3.20;99.90
21312;DHT22;18076;52.154;10.570;2023-04-12T01:00:18;3.30;99.90
21312;DHT22;18076;52.154;10.570;2023-04-12T01:02:44;3.40;99.90
21312;DHT22;18076;52.154;10.570;2023-04-12T01:05:16;3.40;99.90
21312;DHT22;18076;52.154;10.570;2023-04-12T01:10:45;3.50;99.90
21312;DHT22;18076;52.154;10.570;2023-04-12T01:13:23;3.50;99.90
21312;DHT22;18076;52.154;10.570;2023-04-12T01:18:40;3.60;99.90
21312;DHT22;18076;52.154;10.570;2023-04-12T01:21:13;3.50;99.90
21312;DHT22;18076;52.154;10.570;2023-04-12T01:26:41;3.40;99.90
21312;DHT22;18076;52.154;10.570;2023-04-12T01:29:15;3.40;99.90
21312;DHT22;18076;52.154;10.570;2023-04-12T01:31:46;3.40;99.90
21312;DHT22;18076;52.154;10.570;2023-04-12T01:34:13;3.40;99.90
21312;DHT22;18076;52.154;10.570;2023-04-12T01:36:40;3.50;99.90
21312;DHT22;18076;52.154;10.570;2023-04-12T01:39:06;3.50;99.90
21312;DHT22;18076;52.154;10.570;2023-04-12T01:41:32;3.50;99.90
21312;DHT22;18076;52.154;10.570;2023-04-12T01:44:06;3.50;99.90
21312;DHT22;18076;52.154;10.570;2023-04-12T01:46:33;3.60;99.90
21312;DHT22;18076;52.154;10.570;2023-04-12T01:49:01;3.60;99.90
21312;DHT22;18076;52.154;10.570;2023-04-12T01:52:28;3.70;99.90
21312;DHT22;18076;52.154;10.570;2023-04-12T01:54:23;3.60;99.90
21312;DHT22;18076;52.154;10.570;2023-04-12T01:56:52;3.50;99.90
21312;DHT22;18076;52.154;10.570;2023-04-12T01:59:18;3.50;99.90
21312;DHT22;18076;52.154;10.570;2023-04-12T02:01:45;3.60;99.90
21312;DHT22;18076;52.154;10.570;2023-04-12T02:04:11;3.60;99.90
21312;DHT22;18076;52.154;10.570;2023-04-12T02:06:38;3.50;99.90
21312;DHT22;18076;52.154;10.570;2023-04-12T02:09:04;3.50;99.90
21312;DHT22;18076;52.154;10.570;2023-04-12T02:11:30;3.60;99.90
21312;DHT22;18076;52.154;10.570;2023-04-12T02:13:56;3.60;99.90
21312;DHT22;18076;52.154;10.570;2023-04-12T02:16:22;3.60;99.90
21312;DHT22;18076;52.154;10.570;2023-04-12T02:18:51;3.70;99.90
21312;DHT22;18076;52.154;10.570;2023-04-12T02:21:17;3.60;99.90
21312;DHT22;18076;52.154;10.570;2023-04-12T02:23:42;3.70;99.90
21312;DHT22;18076;52.154;10.570;2023-04-12T02:26:09;3.70;99.90
21312;DHT22;18076;52.154;10.570;2023-04-12T02:28:35;3.70;99.90
21312;DHT22;18076;52.154;10.570;2023-04-12T02:31:03;3.70;99.90
21312;DHT22;18076;52.154;10.570;2023-04-12T02:33:28;3.80;99.90
21312;DHT22;18076;52.154;10.570;2023-04-12T02:35:54;3.80;99.90
21312;DHT22;18076;52.154;10.570;2023-04-12T02:38:21;3.80;99.90
21312;DHT22;18076;52.154;10.570;2023-04-12T02:40:47;3.80;99.90
21312;DHT22;18076;52.154;10.570;2023-04-12T02:43:13;3.80;99.90
21312;DHT22;18076;52.154;10.570;2023-04-12T02:45:38;3.90;99.90
21312;DHT22;18076;52.154;10.570;2023-04-12T02:48:04;3.90;99.90
21312;DHT22;18076;52.154;10.570;2023-04-12T02:50:30;4.00;99.90
21312;DHT22;18076;52.154;10.570;2023-04-12T02:52:55;4.10;99.90
21312;DHT22;18076;52.154;10.570;2023-04-12T02:55:21;4.00;99.90
21312;DHT22;18076;52.154;10.570;2023-04-12T02:57:46;3.90;99.90
21312;DHT22;18076;52.154;10.570;2023-04-12T03:00:13;3.90;99.90
21312;DHT22;18076;52.154;10.570;2023-04-12T03:02:42;3.90;99.90
21312;DHT22;18076;52.154;10.570;2023-04-12T03:05:08;4.00;99.90
21312;DHT22;18076;52.154;10.570;2023-04-12T03:07:35;3.90;99.90
21312;DHT22;18076;52.154;10.570;2023-04-12T03:10:01;4.00;99.90
21312;DHT22;18076;52.154;10.570;2023-04-12T03:12:26;4.00;99.90
21312;DHT22;18076;52.154;10.570;2023-04-12T03:14:53;4.00;99.90
21312;DHT22;18076;52.154;10.570;2023-04-12T03:17:18;4.00;99.90
21312;DHT22;18076;52.154;10.570;2023-04-12T03:19:44;4.10;99.90
21312;DHT22;18076;52.154;10.570;2023-04-12T03:22:10;4.10;99.90
21312;DHT22;18076;52.154;10.570;2023-04-12T03:24:36;4.20;99.90
21312;DHT22;18076;52.154;10.570;2023-04-12T03:27:02;4.30;99.90
21312;DHT22;18076;52.154;10.570;2023-04-12T03:29:28;4.30;99.90
21312;DHT22;18076;52.154;10.570;2023-04-12T03:31:56;4.40;99.90
21312;DHT22;18076;52.154;10.570;2023-04-12T03:34:25;4.40;99.90
21312;DHT22;18076;52.154;10.570;2023-04-12T03:37:00;4.50;99.90
21312;DHT22;18076;52.154;10.570;2023-04-12T03:39:25;4.50;99.90
21312;DHT22;18076;52.154;10.570;2023-04-12T03:41:51;4.60;99.90
21312;DHT22;18076;52.154;10.570;2023-04-12T03:44:17;4.60;99.90
21312;DHT22;18076;52.154;10.570;2023-04-12T03:46:43;4.60;99.90
21312;DHT22;18076;52.154;10.570;2023-04-12T03:49:09;4.70;99.90
21312;DHT22;18076;52.154;10.570;2023-04-12T03:51:34;4.70;99.90
21312;DHT22;18076;52.154;10.570;2023-04-12T03:54:00;4.70;99.90
21312;DHT22;18076;52.154;10.570;2023-04-12T03:56:29;4.70;99.90
21312;DHT22;18076;52.154;10.570;2023-04-12T03:58:55;4.80;99.90
21312;DHT22;18076;52.154;10.570;2023-04-12T04:01:20;4.70;99.90
21312;DHT22;18076;52.154;10.570;2023-04-12T04:03:47;4.70;99.90
21312;DHT22;18076;52.154;10.570;2023-04-12T04:06:13;4.70;99.90
21312;DHT22;18076;52.154;10.570;2023-04-12T04:08:39;4.70;99.90
21312;DHT22;18076;52.154;10.570;2023-04-12T04:11:06;4.60;99.90
21312;DHT22;18076;52.154;10.570;2023-04-12T04:13:32;4.60;99.90
21312;DHT22;18076;52.154;10.570;2023-04-12T04:15:58;4.60;99.90
21312;DHT22;18076;52.154;10.570;2023-04-12T04:18:24;4.60;99.90
21312;DHT22;18076;52.154;10.570;2023-04-12T04:20:49;4.50;99.90
21312;DHT22;18076;52.154;10.570;2023-04-12T04:23:15;4.50;99.90
21312;DHT22;18076;52.154;10.570;2023-04-12T04:25:41;4.50;99.90
21312;DHT22;18076;52.154;10.570;2023-04-12T04:28:07;4.50;99.90
21312;DHT22;18076;52.154;10.570;2023-04-12T04:30:33;4.60;99.90
21312;DHT22;18076;52.154;10.570;2023-04-12T04:33:03;4.60;99.90
21312;DHT22;18076;52.154;10.570;2023-04-12T04:35:29;4.70;99.90
21312;DHT22;18076;52.154;10.570;2023-04-12T04:37:55;4.90;99.90
21312;DHT22;18076;52.154;10.570;2023-04-12T04:40:21;4.90;99.90
21312;DHT22;18076;52.154;10.570;2023-04-12T04:42:47;5.00;99.90
21312;DHT22;18076;52.154;10.570;2023-04-12T04:45:19;5.00;99.90
21312;DHT22;18076;52.154;10.570;2023-04-12T04:47:46;5.00;99.90
21312;DHT22;18076;52.154;10.570;2023-04-12T04:50:11;5.00;99.90
21312;DHT22;18076;52.154;10.570;2023-04-12T04:52:37;5.00;99.90
21312;DHT22;18076;52.154;10.570;2023-04-12T04:55:03;5.00;99.90
21312;DHT22;18076;52.154;10.570;2023-04-12T04:57:29;5.10;99.90
21312;DHT22;18076;52.154;10.570;2023-04-12T04:59:55;5.10;99.90
21312;DHT22;18076;52.154;10.570;2023-04-12T05:02:20;5.00;99.90
21312;DHT22;18076;52.154;10.570;2023-04-12T05:04:46;5.10;99.90
21312;DHT22;18076;52.154;10.570;2023-04-12T05:07:14;5.00;99.90
21312;DHT22;18076;52.154;10.570;2023-04-12T05:12:32;5.00;99.90
21312;DHT22;18076;52.154;10.570;2023-04-12T05:16:06;5.00;99.90
21312;DHT22;18076;52.154;10.570;2023-04-12T05:18:50;4.90;99.90
21312;DHT22;18076;52.154;10.570;2023-04-12T05:21:17;4.90;99.90
21312;DHT22;18076;52.154;10.570;2023-04-12T05:23:47;4.80;99.90
21312;DHT22;18076;52.154;10.570;2023-04-12T05:26:13;4.70;99.90
21312;DHT22;18076;52.154;10.570;2023-04-12T05:28:39;4.70;99.90
21312;DHT22;18076;52.154;10.570;2023-04-12T05:31:05;4.70;99.90
21312;DHT22;18076;52.154;10.570;2023-04-12T05:33:31;4.70;99.90
21312;DHT22;18076;52.154;10.570;2023-04-12T05:35:58;4.80;99.90
21312;DHT22;18076;52.154;10.570;2023-04-12T05:38:24;4.90;99.90
21312;DHT22;18076;52.154;10.570;2023-04-12T05:40:50;5.00;99.90
21312;DHT22;18076;52.154;10.570;2023-04-12T05:43:16;5.10;99.90
21312;DHT22;18076;52.154;10.570;2023-04-12T05:45:42;5.20;99.90
21312;DHT22;18076;52.154;10.570;2023-04-12T05:48:07;5.40;99.90
21312;DHT22;18076;52.154;10.570;2023-04-12T05:50:33;5.60;99.90
21312;DHT22;18076;52.154;10.570;2023-04-12T05:52:59;5.80;99.90
21312;DHT22;18076;52.154;10.570;2023-04-12T05:55:25;6.10;99.90
21312;DHT22;18076;52.154;10.570;2023-04-12T05:57:50;6.40;99.90
21312;DHT22;18076;52.154;10.570;2023-04-12T06:00:16;6.60;99.90
21312;DHT22;18076;52.154;10.570;2023-04-12T06:02:46;6.80;99.90
21312;DHT22;18076;52.154;10.570;2023-04-12T06:05:12;7.00;99.90
21312;DHT22;18076;52.154;10.570;2023-04-12T06:07:38;7.10;99.90
21312;DHT22;18076;52.154;10.570;2023-04-12T06:10:06;7.30;99.90
21312;DHT22;18076;52.154;10.570;2023-04-12T06:12:31;7.40;99.90
21312;DHT22;18076;52.154;10.570;2023-04-12T06:14:57;7.40;99.90
21312;DHT22;18076;52.154;10.570;2023-04-12T06:17:22;7.30;99.90
21312;DHT22;18076;52.154;10.570;2023-04-12T06:19:48;7.30;99.90
21312;DHT22;18076;52.154;10.570;2023-04-12T06:22:15;7.30;99.90
21312;DHT22;18076;52.154;10.570;2023-04-12T06:24:41;7.20;99.90
21312;DHT22;18076;52.154;10.570;2023-04-12T06:27:06;7.10;99.90
21312;DHT22;18076;52.154;10.570;2023-04-12T06:29:32;7.30;99.90
21312;DHT22;18076;52.154;10.570;2023-04-12T06:31:57;7.40;99.90
21312;DHT22;18076;52.154;10.570;2023-04-12T06:34:23;7.40;99.90
21312;DHT22;18076;52.154;10.570;2023-04-12T06:36:51;7.50;99.90
21312;DHT22;18076;52.154;10.570;2023-04-12T06:39:20;7.60;99.90
21312;DHT22;18076;52.154;10.570;2023-04-12T06:41:45;7.70;99.90
21312;DHT22;18076;52.154;10.570;2023-04-12T06:44:15;7.80;99.90
21312;DHT22;18076;52.154;10.570;2023-04-12T06:46:40;7.80;99.90
21312;DHT22;18076;52.154;10.570;2023-04-12T06:49:06;7.80;99.90
21312;DHT22;18076;52.154;10.570;2023-04-12T06:51:32;7.80;99.90
21312;DHT22;18076;52.154;10.570;2023-04-12T06:53:59;7.70;99.90
21312;DHT22;18076;52.154;10.570;2023-04-12T06:56:25;7.80;99.90
21312;DHT22;18076;52.154;10.570;2023-04-12T06:58:50;7.80;99.90
21312;DHT22;18076;52.154;10.570;2023-04-12T07:01:16;7.80;99.90
21312;DHT22;18076;52.154;10.570;2023-04-12T07:03:41;7.80;99.90
21312;DHT22;18076;52.154;10.570;2023-04-12T07:06:07;7.90;99.90
21312;DHT22;18076;52.154;10.570;2023-04-12T07:08:35;8.00;99.90
21312;DHT22;18076;52.154;10.570;2023-04-12T07:11:01;8.10;99.90
21312;DHT22;18076;52.154;10.570;2023-04-12T07:13:27;8.30;99.90
21312;DHT22;18076;52.154;10.570;2023-04-12T07:15:52;8.30;99.90
21312;DHT22;18076;52.154;10.570;2023-04-12T07:18:22;8.40;99.90
21312;DHT22;18076;52.154;10.570;2023-04-12T07:20:48;8.50;99.90
21312;DHT22;18076;52.154;10.570;2023-04-12T07:23:19;8.60;99.90
21312;DHT22;18076;52.154;10.570;2023-04-12T07:25:45;8.70;99.90
21312;DHT22;18076;52.154;10.570;2023-04-12T07:28:13;8.80;99.90
21312;DHT22;18076;52.154;10.570;2023-04-12T07:30:39;9.00;99.90
21312;DHT22;18076;52.154;10.570;2023-04-12T07:33:04;9.20;99.90
21312;DHT22;18076;52.154;10.570;2023-04-12T07:35:31;9.30;99.90
21312;DHT22;18076;52.154;10.570;2023-04-12T07:37:56;9.30;99.90
21312;DHT22;18076;52.154;10.570;2023-04-12T07:40:22;9.40;99.90
21312;DHT22;18076;52.154;10.570;2023-04-12T07:42:48;9.40;99.90
21312;DHT22;18076;52.154;10.570;2023-04-12T07:45:13;9.50;99.90
21312;DHT22;18076;52.154;10.570;2023-04-12T07:47:39;9.50;99.90
21312;DHT22;18076;52.154;10.570;2023-04-12T07:50:05;9.50;99.90
21312;DHT22;18076;52.154;10.570;2023-04-12T07:52:31;9.40;99.90
21312;DHT22;18076;52.154;10.570;2023-04-12T07:54:56;9.50;99.90
21312;DHT22;18076;52.154;10.570;2023-04-12T07:57:22;9.60;99.90
21312;DHT22;18076;52.154;10.570;2023-04-12T07:59:48;9.70;99.90
21312;DHT22;18076;52.154;10.570;2023-04-12T08:02:14;9.80;99.90
21312;DHT22;18076;52.154;10.570;2023-04-12T08:04:49;10.00;99.90
21312;DHT22;18076;52.154;10.570;2023-04-12T08:07:14;10.10;99.90
21312;DHT22;18076;52.154;10.570;2023-04-12T08:09:40;10.40;99.90
21312;DHT22;18076;52.154;10.570;2023-04-12T08:12:06;10.50;99.90
21312;DHT22;18076;52.154;10.570;2023-04-12T08:14:31;10.60;99.90
21312;DHT22;18076;52.154;10.570;2023-04-12T08:16:57;11.00;99.90
21312;DHT22;18076;52.154;10.570;2023-04-12T08:19:22;11.50;99.90
21312;DHT22;18076;52.154;10.570;2023-04-12T08:21:48;11.90;99.90
21312;DHT22;18076;52.154;10.570;2023-04-12T08:24:14;12.20;99.90
21312;DHT22;18076;52.154;10.570;2023-04-12T08:26:39;12.40;99.90
21312;DHT22;18076;52.154;10.570;2023-04-12T08:29:05;12.50;99.90
21312;DHT22;18076;52.154;10.570;2023-04-12T08:31:31;12.60;99.90
21312;DHT22;18076;52.154;10.570;2023-04-12T08:33:57;12.70;99.90
21312;DHT22;18076;52.154;10.570;2023-04-12T08:36:24;13.10;99.90
21312;DHT22;18076;52.154;10.570;2023-04-12T08:38:50;13.20;99.90
21312;DHT22;18076;52.154;10.570;2023-04-12T08:41:17;13.30;99.90
21312;DHT22;18076;52.154;10.570;2023-04-12T08:43:43;13.00;99.90
21312;DHT22;18076;52.154;10.570;2023-04-12T08:46:10;12.90;99.90
21312;DHT22;18076;52.154;10.570;2023-04-12T08:48:39;12.90;99.90
21312;DHT22;18076;52.154;10.570;2023-04-12T08:51:06;13.00;99.90
21312;DHT22;18076;52.154;10.570;2023-04-12T08:53:32;13.10;99.90
21312;DHT22;18076;52.154;10.570;2023-04-12T08:55:58;13.00;99.90
21312;DHT22;18076;52.154;10.570;2023-04-12T08:58:23;12.90;99.90
21312;DHT22;18076;52.154;10.570;2023-04-12T09:00:49;12.80;99.90
21312;DHT22;18076;52.154;10.570;2023-04-12T09:03:15;12.60;99.90
21312;DHT22;18076;52.154;10.570;2023-04-12T09:05:40;12.40;99.90
21312;DHT22;18076;52.154;10.570;2023-04-12T09:08:06;12.30;99.90
21312;DHT22;18076;52.154;10.570;2023-04-12T09:10:32;12.30;99.90
21312;DHT22;18076;52.154;10.570;2023-04-12T09:12:59;12.20;99.90
21312;DHT22;18076;52.154;10.570;2023-04-12T09:15:24;12.10;99.90
21312;DHT22;18076;52.154;10.570;2023-04-12T09:18:01;12.00;99.90
21312;DHT22;18076;52.154;10.570;2023-04-12T09:20:27;12.00;99.90
21312;DHT22;18076;52.154;10.570;2023-04-12T09:22:52;11.90;99.90
21312;DHT22;18076;52.154;10.570;2023-04-12T09:28:16;11.70;99.90
21312;DHT22;18076;52.154;10.570;2023-04-12T09:30:43;11.60;99.90
21312;DHT22;18076;52.154;10.570;2023-04-12T09:33:11;11.40;99.90
21312;DHT22;18076;52.154;10.570;2023-04-12T09:35:37;11.20;99.90
21312;DHT22;18076;52.154;10.570;2023-04-12T09:38:06;11.10;99.90
21312;DHT22;18076;52.154;10.570;2023-04-12T09:40:33;11.00;99.90
21312;DHT22;18076;52.154;10.570;2023-04-12T09:43:00;10.90;99.90
21312;DHT22;18076;52.154;10.570;2023-04-12T09:45:26;10.80;99.90
21312;DHT22;18076;52.154;10.570;2023-04-12T09:47:53;10.70;99.90
21312;DHT22;18076;52.154;10.570;2023-04-12T09:50:19;10.60;99.90
21312;DHT22;18076;52.154;10.570;2023-04-12T09:52:44;10.50;99.90
21312;DHT22;18076;52.154;10.570;2023-04-12T09:55:10;10.40;99.90
21312;DHT22;18076;52.154;10.570;2023-04-12T09:57:37;10.30;99.90
21312;DHT22;18076;52.154;10.570;2023-04-12T10:00:04;10.30;99.90
21312;DHT22;18076;52.154;10.570;2023-04-12T10:02:36;10.30;99.90
21312;DHT22;18076;52.154;10.570;2023-04-12T10:05:01;10.20;99.90
21312;DHT22;18076;52.154;10.570;2023-04-12T10:07:27;10.20;99.90
21312;DHT22;18076;52.154;10.570;2023-04-12T10:09:53;10.10;99.90
21312;DHT22;18076;52.154;10.570;2023-04-12T10:12:19;10.00;99.90
21312;DHT22;18076;52.154;10.570;2023-04-12T10:14:45;10.00;99.90
21312;DHT22;18076;52.154;10.570;2023-04-12T10:17:11;9.90;99.90
21312;DHT22;18076;52.154;10.570;2023-04-12T10:19:37;9.90;99.90
21312;DHT22;18076;52.154;10.570;2023-04-12T10:22:06;9.80;99.90
21312;DHT22;18076;52.154;10.570;2023-04-12T10:24:32;9.80;99.90
21312;DHT22;18076;52.154;10.570;2023-04-12T10:26:58;9.70;99.90
21312;DHT22;18076;52.154;10.570;2023-04-12T10:29:30;9.70;99.90
21312;DHT22;18076;52.154;10.570;2023-04-12T10:34:42;9.60;99.90
21312;DHT22;18076;52.154;10.570;2023-04-12T10:37:08;9.70;99.90
21312;DHT22;18076;52.154;10.570;2023-04-12T10:39:40;9.60;99.90
21312;DHT22;18076;52.154;10.570;2023-04-12T10:42:19;9.50;99.90
21312;DHT22;18076;52.154;10.570;2023-04-12T10:44:45;9.50;99.90
21312;DHT22;18076;52.154;10.570;2023-04-12T10:47:11;9.30;99.90
21312;DHT22;18076;52.154;10.570;2023-04-12T10:49:37;9.30;99.90
21312;DHT22;18076;52.154;10.570;2023-04-12T10:52:10;9.30;99.90
21312;DHT22;18076;52.154;10.570;2023-04-12T10:54:36;9.20;99.90
21312;DHT22;18076;52.154;10.570;2023-04-12T10:57:02;9.20;99.90
21312;DHT22;18076;52.154;10.570;2023-04-12T10:59:49;9.20;99.90
21312;DHT22;18076;52.154;10.570;2023-04-12T11:02:15;9.20;99.90
21312;DHT22;18076;52.154;10.570;2023-04-12T11:07:36;9.30;99.90
21312;DHT22;18076;52.154;10.570;2023-04-12T11:10:02;9.30;99.90
21312;DHT22;18076;52.154;10.570;2023-04-12T11:12:28;9.20;99.90
21312;DHT22;18076;52.154;10.570;2023-04-12T11:14:54;9.10;99.90
21312;DHT22;18076;52.154;10.570;2023-04-12T11:17:23;9.10;99.90
21312;DHT22;18076;52.154;10.570;2023-04-12T11:19:51;9.20;99.90
21312;DHT22;18076;52.154;10.570;2023-04-12T11:22:17;9.20;99.90
21312;DHT22;18076;52.154;10.570;2023-04-12T11:25:02;9.20;99.90
21312;DHT22;18076;52.154;10.570;2023-04-12T11:27:28;9.10;99.90
21312;DHT22;18076;52.154;10.570;2023-04-12T11:29:55;9.10;99.90
21312;DHT22;18076;52.154;10.570;2023-04-12T11:32:22;9.10;99.90
21312;DHT22;18076;52.154;10.570;2023-04-12T11:34:48;9.10;99.90
21312;DHT22;18076;52.154;10.570;2023-04-12T11:37:13;9.10;99.90
21312;DHT22;18076;52.154;10.570;2023-04-12T11:39:43;9.10;99.90
21312;DHT22;18076;52.154;10.570;2023-04-12T11:42:16;9.10;99.90
21312;DHT22;18076;52.154;10.570;2023-04-12T11:44:42;9.10;99.90
21312;DHT22;18076;52.154;10.570;2023-04-12T11:47:12;9.10;99.90
21312;DHT22;18076;52.154;10.570;2023-04-12T11:49:43;9.20;99.90
21312;DHT22;18076;52.154;10.570;2023-04-12T11:52:09;9.20;99.90
21312;DHT22;18076;52.154;10.570;2023-04-12T11:54:34;9.20;99.90
21312;DHT22;18076;52.154;10.570;2023-04-12T11:57:00;9.20;99.90
21312;DHT22;18076;52.154;10.570;2023-04-12T11:59:33;9.10;99.90
21312;DHT22;18076;52.154;10.570;2023-04-12T12:01:59;9.10;99.90
21312;DHT22;18076;52.154;10.570;2023-04-12T12:04:25;9.10;99.90
21312;DHT22;18076;52.154;10.570;2023-04-12T12:06:54;9.10;99.90
21312;DHT22;18076;52.154;10.570;2023-04-12T12:09:20;9.00;99.90
21312;DHT22;18076;52.154;10.570;2023-04-12T12:11:46;9.10;99.90
21312;DHT22;18076;52.154;10.570;2023-04-12T12:14:11;9.10;99.90
21312;DHT22;18076;52.154;10.570;2023-04-12T12:16:42;9.10;99.90
21312;DHT22;18076;52.154;10.570;2023-04-12T12:19:07;9.20;99.90
21312;DHT22;18076;52.154;10.570;2023-04-12T12:21:33;9.20;99.90
21312;DHT22;18076;52.154;10.570;2023-04-12T12:23:58;9.20;99.90
21312;DHT22;18076;52.154;10.570;2023-04-12T12:26:25;9.20;99.90
21312;DHT22;18076;52.154;10.570;2023-04-12T12:28:52;9.20;99.90
21312;DHT22;18076;52.154;10.570;2023-04-12T12:31:18;9.20;99.90
21312;DHT22;18076;52.154;10.570;2023-04-12T12:33:44;9.20;99.90
21312;DHT22;18076;52.154;10.570;2023-04-12T12:36:11;9.30;99.90
21312;DHT22;18076;52.154;10.570;2023-04-12T12:38:39;9.30;99.90
21312;DHT22;18076;52.154;10.570;2023-04-12T12:41:18;9.40;99.90
21312;DHT22;18076;52.154;10.570;2023-04-12T12:43:47;9.40;99.90
21312;DHT22;18076;52.154;10.570;2023-04-12T12:46:13;9.40;99.90
21312;DHT22;18076;52.154;10.570;2023-04-12T12:48:42;9.50;99.90
21312;DHT22;18076;52.154;10.570;2023-04-12T12:51:08;9.60;99.90
21312;DHT22;18076;52.154;10.570;2023-04-12T12:53:34;9.60;99.90
21312;DHT22;18076;52.154;10.570;2023-04-12T12:56:00;9.50;99.90
21312;DHT22;18076;52.154;10.570;2023-04-12T12:58:25;9.60;99.90
21312;DHT22;18076;52.154;10.570;2023-04-12T13:00:51;9.60;99.90
21312;DHT22;18076;52.154;10.570;2023-04-12T13:03:17;9.60;99.90
21312;DHT22;18076;52.154;10.570;2023-04-12T13:05:42;9.60;99.90
21312;DHT22;18076;52.154;10.570;2023-04-12T13:08:08;9.60;99.90
21312;DHT22;18076;52.154;10.570;2023-04-12T13:10:35;9.60;99.90
21312;DHT22;18076;52.154;10.570;2023-04-12T13:13:01;9.70;99.90
21312;DHT22;18076;52.154;10.570;2023-04-12T13:15:27;9.80;99.90
21312;DHT22;18076;52.154;10.570;2023-04-12T13:17:52;9.90;99.90
21312;DHT22;18076;52.154;10.570;2023-04-12T13:20:18;10.00;99.90
21312;DHT22;18076;52.154;10.570;2023-04-12T13:22:44;10.00;99.90
21312;DHT22;18076;52.154;10.570;2023-04-12T13:25:10;9.90;99.90
21312;DHT22;18076;52.154;10.570;2023-04-12T13:27:35;9.90;99.90
21312;DHT22;18076;52.154;10.570;2023-04-12T13:30:02;9.90;99.90
21312;DHT22;18076;52.154;10.570;2023-04-12T13:32:28;9.80;99.90
21312;DHT22;18076;52.154;10.570;2023-04-12T13:34:53;9.80;99.90
21312;DHT22;18076;52.154;10.570;2023-04-12T13:37:19;9.80;99.90
21312;DHT22;18076;52.154;10.570;2023-04-12T13:39:44;9.80;99.90
21312;DHT22;18076;52.154;10.570;2023-04-12T13:42:10;9.80;99.90
21312;DHT22;18076;52.154;10.570;2023-04-12T13:44:36;9.80;99.90
21312;DHT22;18076;52.154;10.570;2023-04-12T13:47:02;9.80;99.90
21312;DHT22;18076;52.154;10.570;2023-04-12T13:49:27;9.80;99.90
21312;DHT22;18076;52.154;10.570;2023-04-12T13:51:54;9.80;99.90
21312;DHT22;18076;52.154;10.570;2023-04-12T13:54:19;9.80;99.90
21312;DHT22;18076;52.154;10.570;2023-04-12T13:56:45;9.80;99.90
21312;DHT22;18076;52.154;10.570;2023-04-12T13:59:13;9.90;99.90
21312;DHT22;18076;52.154;10.570;2023-04-12T14:01:41;9.90;99.90
21312;DHT22;18076;52.154;10.570;2023-04-12T14:04:08;9.90;99.90
21312;DHT22;18076;52.154;10.570;2023-04-12T14:06:34;9.90;99.90
21312;DHT22;18076;52.154;10.570;2023-04-12T14:09:00;9.90;99.90
21312;DHT22;18076;52.154;10.570;2023-04-12T14:11:26;9.90;99.90
21312;DHT22;18076;52.154;10.570;2023-04-12T14:13:52;9.90;99.90
21312;DHT22;18076;52.154;10.570;2023-04-12T14:16:17;9.90;99.90
21312;DHT22;18076;52.154;10.570;2023-04-12T14:18:43;9.90;99.90
21312;DHT22;18076;52.154;10.570;2023-04-12T14:21:08;9.80;99.90
21312;DHT22;18076;52.154;10.570;2023-04-12T14:23:34;9.90;99.90
21312;DHT22;18076;52.154;10.570;2023-04-12T14:26:00;9.90;99.90
21312;DHT22;18076;52.154;10.570;2023-04-12T14:28:26;9.90;99.90
21312;DHT22;18076;52.154;10.570;2023-04-12T14:30:58;9.90;99.90
21312;DHT22;18076;52.154;10.570;2023-04-12T14:33:25;10.00;99.90
21312;DHT22;18076;52.154;10.570;2023-04-12T14:35:52;10.10;99.90
21312;DHT22;18076;52.154;10.570;2023-04-12T14:38:18;10.20;99.90
21312;DHT22;18076;52.154;10.570;2023-04-12T14:40:43;10.20;99.90
21312;DHT22;18076;52.154;10.570;2023-04-12T14:43:09;10.10;99.90
21312;DHT22;18076;52.154;10.570;2023-04-12T14:45:38;10.10;99.90
21312;DHT22;18076;52.154;10.570;2023-04-12T14:48:03;10.10;99.90
21312;DHT22;18076;52.154;10.570;2023-04-12T14:50:29;10.10;99.90
21312;DHT22;18076;52.154;10.570;2023-04-12T14:52:55;10.10;99.90
21312;DHT22;18076;52.154;10.570;2023-04-12T14:55:20;10.10;99.90
21312;DHT22;18076;52.154;10.570;2023-04-12T14:57:47;10.10;99.90
21312;DHT22;18076;52.154;10.570;2023-04-12T15:00:12;10.10;99.90
21312;DHT22;18076;52.154;10.570;2023-04-12T15:02:39;10.10;99.90
21312;DHT22;18076;52.154;10.570;2023-04-12T15:05:05;10.20;99.90
21312;DHT22;18076;52.154;10.570;2023-04-12T15:07:32;10.10;99.90
21312;DHT22;18076;52.154;10.570;2023-04-12T15:09:58;10.20;99.90
21312;DHT22;18076;52.154;10.570;2023-04-12T15:12:24;10.20;99.90
21312;DHT22;18076;52.154;10.570;2023-04-12T15:14:50;10.20;99.90
21312;DHT22;18076;52.154;10.570;2023-04-12T15:17:18;10.30;99.90
21312;DHT22;18076;52.154;10.570;2023-04-12T15:19:44;10.30;99.90
21312;DHT22;18076;52.154;10.570;2023-04-12T15:22:09;10.40;99.90
21312;DHT22;18076;52.154;10.570;2023-04-12T15:24:35;10.40;99.90
21312;DHT22;18076;52.154;10.570;2023-04-12T15:27:00;10.40;99.90
21312;DHT22;18076;52.154;10.570;2023-04-12T15:29:26;10.40;99.90
21312;DHT22;18076;52.154;10.570;2023-04-12T15:31:51;10.40;99.90
21312;DHT22;18076;52.154;10.570;2023-04-12T15:34:17;10.50;99.90
21312;DHT22;18076;52.154;10.570;2023-04-12T15:36:42;10.50;99.90
21312;DHT22;18076;52.154;10.570;2023-04-12T15:39:09;10.50;99.90
21312;DHT22;18076;52.154;10.570;2023-04-12T15:41:35;10.50;99.90
21312;DHT22;18076;52.154;10.570;2023-04-12T15:44:07;10.60;99.90
21312;DHT22;18076;52.154;10.570;2023-04-12T15:46:34;10.60;99.90